National City, CA (91950)

1:30 AM PDT on May 23, 2015 (GMT -0700)
APRSWXNET | | Change Station
CLOSE
Current Station
Personal Weather Station
Location: National City, CA
Elevation: 82 ft
Nearby Weather Stations

Elev 82 ft 32.67 °N, 117.10 °W | Updated 26 minutes ago

Overcast
Overcast
61 °F
Feels Like 61 °F
N
2
Wind Variable Wind from WSW
Gusts 0.0 mph

Today
High -- | Low -- °F
--% Chance of Precip.
Yesterday
High -- | Low -- °F
Precip. -- in
5:45 AM 7:45 PM
Waxing Crescent, 28% visible
Pressure 30.09 in
Visibility 10.0 miles
Clouds Few 1600 ft
Scattered Clouds 2100 ft
Overcast 3600 ft
Dew Point 56 °F
Humidity 84%
Rainfall in
Snow Depth Not available.
UV 0 out of 12
Pollen 4.00 out of 12
Air Quality Not available.
Flu Activity Sporadic
METAR KNRS 230756Z AUTO 29009KT 10SM FEW016 SCT021 OVC036 16/13 A3009 RMK AO2 SLP189 T01610128 402060156 PNO $

More Conditions Fewer Conditions

Pressure 30.09 in
Visibility 10.0 miles
Clouds Few 1600 ft
Scattered Clouds 2100 ft
Overcast 3600 ft
Dew Point 56 °F
Humidity 84%
Rainfall in
Snow Depth Not available.
UV 0 out of 12
Pollen 4.00 out of 12
Air Quality Not available.
Flu Activity Sporadic
METAR KNRS 230756Z AUTO 29009KT 10SM FEW016 SCT021 OVC036 16/13 A3009 RMK AO2 SLP189 T01610128 402060156 PNO $

More Conditions Fewer Conditions

10-Day Weather Forecast

Almanac

Astronomy

May. 23, 2015 Rise Set
Actual Time
Civil Twilight
Nautical Twilight
Astronomical Twilight
Moon
Length of Visible Light
Length of Day
Tomorrow will be .
, % of the Moon is Illuminated

Today's Extremes

State Highs State Lows

Community

WunderPhotos

Upload Photos

1,823,401 photos uploaded!

WunderBlogs® & News

Nearby

Air Quality

  Air Quality AQ Index Pollutant
Not available.

Snow Depth

Station Depth Elevation

Earthquake Activity

City Distance Mag. Time & Date
Minimum magnitude displayed is 2.5.

Coastal Water Temperatures

Place Temperature

Stations

Nearby Weather Stations

Station Location Temp. Windchill Dew Point Humidity Wind Precip. Elev Updated Type